Time;durP1;ratioP1;P1;durP2;ratioP2;P2;SDS_P1;SDS_P2;PMS_P1;PMS_P2;Temp;Humidity;BMP_temperature;BMP_pressure;BME280_temperature;BME280_humidity;BME280_pressure;Samples;Min_cycle;Max_cycle;Signal;HPM_P1;HPM_P2
2022/07/11 00:01:09;;;;;;;11.23;4.97;;;;;;;22.60;66.44;100583.41;2103350;28;20133;-73
2022/07/11 00:02:31;;;;;;;8.77;3.42;;;;;;;22.59;66.50;100583.47;2109084;28;20039;-73
2022/07/11 00:03:53;;;;;;;10.85;3.78;;;;;;;22.57;66.62;100588.91;2111196;28;20093;-73
2022/07/11 00:05:16;;;;;;;12.55;3.83;;;;;;;22.59;66.46;100595.09;2111465;28;20082;-73
2022/07/11 00:06:37;;;;;;;7.38;3.70;;;;;;;22.60;66.27;100593.28;2111312;28;20052;-73
2022/07/11 00:07:59;;;;;;;9.55;4.00;;;;;;;22.61;66.24;100592.38;2111151;28;20043;-73
2022/07/11 00:09:21;;;;;;;10.15;4.05;;;;;;;22.63;66.05;100595.88;2111517;28;20413;-72
2022/07/11 00:10:43;;;;;;;9.60;4.00;;;;;;;22.63;66.00;100590.50;2110943;28;20043;-72
2022/07/11 00:12:06;;;;;;;8.32;3.83;;;;;;;22.64;65.89;100589.56;2111453;28;20441;-73
2022/07/11 00:13:29;;;;;;;9.32;3.40;;;;;;;22.62;66.23;100586.06;2111557;28;20051;-73
2022/07/11 00:14:50;;;;;;;7.57;3.78;;;;;;;22.59;66.38;100583.47;2111410;28;20492;-73
2022/07/11 00:16:14;;;;;;;8.13;3.80;;;;;;;22.57;66.51;100575.47;2111362;28;20063;-73
2022/07/11 00:17:37;;;;;;;8.15;4.43;;;;;;;22.59;66.44;100581.66;2111226;28;20089;-74
2022/07/11 00:18:58;;;;;;;8.38;3.42;;;;;;;22.59;66.33;100580.75;2111344;28;20067;-74
2022/07/11 00:20:21;;;;;;;10.10;3.83;;;;;;;22.60;66.37;100580.72;2114143;28;20047;-72
2022/07/11 00:21:42;;;;;;;9.57;4.22;;;;;;;22.61;66.35;100589.69;2109904;28;20075;-73
2022/07/11 00:23:05;;;;;;;8.00;3.70;;;;;;;22.58;66.46;100574.50;2104941;28;20043;-73
2022/07/11 00:24:27;;;;;;;8.70;4.78;;;;;;;22.59;66.58;100580.75;2102563;28;20746;-73
2022/07/11 00:25:50;;;;;;;9.98;3.70;;;;;;;22.60;66.48;100574.47;2108748;28;20056;-73
2022/07/11 00:27:13;;;;;;;9.50;4.10;;;;;;;22.61;66.49;100568.16;2103042;28;20572;-73
2022/07/11 00:28:35;;;;;;;8.70;3.70;;;;;;;22.62;66.51;100576.16;2111383;28;20052;-73
2022/07/11 00:29:57;;;;;;;6.45;3.55;;;;;;;22.63;66.51;100574.34;2111278;28;20035;-73
2022/07/11 00:31:21;;;;;;;8.65;3.78;;;;;;;22.63;66.79;100579.75;2113735;28;20603;-72
2022/07/11 00:32:44;;;;;;;9.68;3.42;;;;;;;22.62;66.85;100583.38;2111355;28;20067;-72
2022/07/11 00:34:05;;;;;;;8.35;4.03;;;;;;;22.60;67.03;100588.78;2111196;28;20048;-73
2022/07/11 00:35:28;;;;;;;6.38;3.72;;;;;;;22.61;67.01;100578.91;2111055;28;20043;-72
2022/07/11 00:36:50;;;;;;;7.65;3.53;;;;;;;22.62;67.04;100580.66;2113914;28;20066;-73
2022/07/11 00:38:11;;;;;;;8.50;3.75;;;;;;;22.64;66.99;100581.50;2110908;28;20108;-73
2022/07/11 00:39:34;;;;;;;9.95;4.07;;;;;;;22.64;67.03;100581.50;2111183;28;20153;-73
2022/07/11 00:40:55;;;;;;;9.25;3.97;;;;;;;22.64;67.03;100573.44;2111412;28;20024;-73
2022/07/11 00:42:18;;;;;;;7.82;4.35;;;;;;;22.61;66.99;100574.41;2111323;28;20047;-73
2022/07/11 00:43:40;;;;;;;8.13;3.60;;;;;;;22.61;66.94;100578.91;2111318;28;20078;-73
2022/07/11 00:45:03;;;;;;;11.20;3.78;;;;;;;22.61;66.85;100573.53;2111170;28;20077;-73
2022/07/11 00:46:27;;;;;;;9.73;3.47;;;;;;;22.59;66.48;100572.69;2111316;28;20051;-73
2022/07/11 00:47:49;;;;;;;7.65;3.47;;;;;;;22.59;66.33;100578.97;2111375;28;20134;-73
2022/07/11 00:49:11;;;;;;;5.95;3.80;;;;;;;22.60;66.06;100567.25;2111196;28;20079;-73
2022/07/11 00:50:33;;;;;;;6.85;3.53;;;;;;;22.57;66.05;100574.59;2111080;28;20448;-74
2022/07/11 00:51:56;;;;;;;6.03;3.58;;;;;;;22.55;66.06;100577.31;2111281;28;20071;-73
2022/07/11 00:53:18;;;;;;;7.57;3.70;;;;;;;22.58;65.74;100584.38;2111360;28;20570;-73
2022/07/11 00:54:41;;;;;;;8.77;3.80;;;;;;;22.57;65.64;100583.53;2111226;28;20500;-73
2022/07/11 00:56:03;;;;;;;7.57;3.53;;;;;;;22.57;65.56;100578.16;2105347;28;20143;-73
2022/07/11 00:57:25;;;;;;;;;;;;;;;22.55;65.57;100577.31;2109175;28;20073;-73
2022/07/11 00:58:47;;;;;;;8.25;3.88;;;;;;;22.57;65.50;100585.34;2111055;28;19919;-73
2022/07/11 01:00:11;;;;;;;8.65;3.75;;;;;;;22.58;65.36;100579.00;2102834;28;20044;-73
2022/07/11 01:01:37;;;;;;;8.70;3.85;;;;;;;22.60;65.18;100588.78;2109056;28;20096;-73
2022/07/11 01:03:00;;;;;;;8.63;3.80;;;;;;;22.59;65.08;100580.75;2111325;28;20537;-73
2022/07/11 01:04:23;;;;;;;10.10;3.90;;;;;;;22.57;65.26;100586.22;2111286;28;20104;-73
2022/07/11 01:05:44;;;;;;;8.40;3.75;;;;;;;22.53;65.38;100587.25;2111130;28;20550;-73
2022/07/11 01:07:07;;;;;;;4.78;2.85;;;;;;;22.51;65.45;100580.19;2110723;28;20131;-73
2022/07/11 01:08:31;;;;;;;7.13;3.25;;;;;;;22.51;65.59;100591.81;2111112;28;20055;-73
2022/07/11 01:09:54;;;;;;;8.23;3.78;;;;;;;22.54;65.48;100582.75;2111351;28;20050;-73
2022/07/11 01:11:16;;;;;;;9.35;4.07;;;;;;;22.56;65.56;100587.16;2110940;28;20082;-73
2022/07/11 01:12:38;;;;;;;7.55;3.78;;;;;;;22.60;65.26;100585.22;2102793;28;20052;-73
2022/07/11 01:14:01;;;;;;;7.20;3.70;;;;;;;22.63;65.26;100582.44;2110714;28;20066;-73
2022/07/11 01:15:22;;;;;;;10.48;3.65;;;;;;;22.63;65.22;100579.75;2111003;28;20058;-73
2022/07/11 01:16:46;;;;;;;9.63;3.63;;;;;;;22.61;65.41;100568.16;2110971;28;20517;-73
2022/07/11 01:18:07;;;;;;;5.60;3.38;;;;;;;22.58;65.64;100574.50;2111159;28;20055;-73
2022/07/11 01:19:30;;;;;;;10.85;3.47;;;;;;;22.57;65.51;100579.97;2110848;28;20401;-73
2022/07/11 01:20:52;;;;;;;8.82;3.45;;;;;;;22.58;65.34;100566.44;2113351;28;20054;-73
2022/07/11 01:22:15;;;;;;;7.63;3.22;;;;;;;22.54;65.20;100580.06;2113695;28;20050;-74
2022/07/11 01:23:40;;;;;;;7.05;3.50;;;;;;;22.51;65.16;100583.72;2104879;28;20055;-73
2022/07/11 01:25:02;;;;;;;8.00;3.53;;;;;;;22.54;64.89;100580.06;2108625;28;20052;-74
2022/07/11 01:26:25;;;;;;;6.30;3.53;;;;;;;22.53;64.67;100576.50;2110873;28;20447;-73
2022/07/11 01:27:48;;;;;;;5.55;3.17;;;;;;;22.54;64.56;100580.94;2110649;28;20460;-73
2022/07/11 01:29:12;;;;;;;7.90;3.97;;;;;;;22.56;64.44;100591.66;2110875;28;20051;-73
2022/07/11 01:30:33;;;;;;;5.93;3.42;;;;;;;22.57;64.37;100588.03;2102580;28;20048;-73
2022/07/11 01:31:56;;;;;;;8.63;4.18;;;;;;;22.59;64.35;100591.53;2108069;28;20051;-73
2022/07/11 01:33:17;;;;;;;7.57;3.90;;;;;;;22.58;64.32;100587.97;2110844;28;20100;-73
2022/07/11 01:34:40;;;;;;;8.50;4.32;;;;;;;22.58;64.35;100593.34;2113090;28;20489;-73
2022/07/11 01:36:01;;;;;;;10.18;3.65;;;;;;;22.56;64.41;100591.66;2105200;28;20059;-73
2022/07/11 01:37:23;;;;;;;7.65;3.38;;;;;;;22.54;64.59;100598.91;2108221;28;20051;-73
2022/07/11 01:38:47;;;;;;;7.50;3.88;;;;;;;22.53;64.65;100591.75;2110783;28;20134;-73
2022/07/11 01:40:11;;;;;;;10.32;3.88;;;;;;;22.53;64.71;100592.63;2110957;28;20056;-73
2022/07/11 01:41:33;;;;;;;6.78;3.63;;;;;;;22.54;64.69;100593.53;2110749;28;20082;-72
2022/07/11 01:42:55;;;;;;;10.70;3.78;;;;;;;22.51;64.83;100588.28;2110589;28;20477;-73
2022/07/11 01:44:17;;;;;;;7.13;3.58;;;;;;;22.45;65.03;100597.41;2104984;28;20051;-73
2022/07/11 01:45:39;;;;;;;8.15;3.42;;;;;;;22.47;64.94;100587.47;2108298;28;20051;-73
2022/07/11 01:47:01;;;;;;;8.95;3.60;;;;;;;22.47;64.84;100590.16;2110696;28;20039;-73
2022/07/11 01:48:23;;;;;;;7.63;3.92;;;;;;;22.48;64.74;100588.38;2110523;28;20051;-73
2022/07/11 01:49:45;;;;;;;8.52;3.50;;;;;;;22.50;64.65;100591.88;2110706;28;20044;-73
2022/07/11 01:51:08;;;;;;;6.43;3.53;;;;;;;22.51;64.60;100585.56;2110568;28;20051;-73
2022/07/11 01:52:29;;;;;;;8.02;3.45;;;;;;;22.53;64.63;100583.69;2113520;28;20080;-73
2022/07/11 01:53:55;;;;;;;6.55;3.33;;;;;;;22.53;64.61;100589.06;2110676;28;20054;-73
2022/07/11 01:55:16;;;;;;;6.45;3.30;;;;;;;22.50;64.79;100583.81;2110683;28;20490;-73
2022/07/11 01:56:39;;;;;;;8.07;3.58;;;;;;;22.51;64.81;100589.13;2110626;28;20062;-73
2022/07/11 01:58:00;;;;;;;7.80;3.42;;;;;;;22.53;64.88;100583.69;2110727;28;20063;-73
2022/07/11 01:59:23;;;;;;;6.80;3.03;;;;;;;22.48;64.98;100580.28;2110541;28;20366;-73
2022/07/11 02:00:45;;;;;;;8.00;3.42;;;;;;;22.46;64.95;100582.16;2103225;28;20072;-73
2022/07/11 02:02:06;;;;;;;9.38;3.25;;;;;;;22.43;64.87;100585.84;2096742;28;20101;-74
2022/07/11 02:03:29;;;;;;;8.40;3.33;;;;;;;22.45;64.63;100585.81;2099261;28;20040;-74
2022/07/11 02:04:50;;;;;;;11.82;3.72;;;;;;;22.48;64.26;100582.97;2093984;28;20083;-73
2022/07/11 02:06:13;;;;;;;8.07;3.75;;;;;;;22.50;64.09;100582.00;2102391;28;20048;-74
2022/07/11 02:09:17;;;;;;;6.80;3.55;;;;;;;22.51;64.19;100588.28;2104991;28;20157;-73
2022/07/11 02:10:39;;;;;;;5.97;3.75;;;;;;;22.50;64.09;100587.38;2105015;28;20036;-74
2022/07/11 02:12:01;;;;;;;9.95;3.78;;;;;;;22.51;64.34;100590.97;2101973;28;20078;-72
2022/07/11 02:13:23;;;;;;;7.30;3.50;;;;;;;22.54;64.25;100598.91;2102209;28;20055;-73
2022/07/11 02:14:46;;;;;;;5.72;3.30;;;;;;;22.51;64.24;100589.13;2094148;28;20101;-73
2022/07/11 02:16:07;;;;;;;5.53;3.70;;;;;;;22.53;64.16;100591.75;2102050;28;20059;-73
2022/07/11 02:17:30;;;;;;;5.15;3.40;;;;;;;22.56;64.02;100597.03;2104897;28;20416;-74
2022/07/11 02:18:53;;;;;;;7.35;3.38;;;;;;;22.57;63.93;100588.03;2094089;28;20055;-73
2022/07/11 02:20:14;;;;;;;11.75;3.70;;;;;;;22.57;63.88;100588.91;2099649;28;20084;-73
2022/07/11 02:21:37;;;;;;;8.32;3.40;;;;;;;22.58;63.76;100589.78;2094470;28;20892;-74
2022/07/11 02:22:58;;;;;;;6.80;3.20;;;;;;;22.60;63.68;100590.59;2107570;28;20453;-73
2022/07/11 02:24:22;;;;;;;5.07;2.80;;;;;;;22.60;63.61;100590.59;2110396;28;20075;-73
2022/07/11 02:25:45;;;;;;;7.15;3.33;;;;;;;22.59;63.66;100594.22;2110632;28;20039;-74
2022/07/11 02:27:07;;;;;;;6.53;3.03;;;;;;;22.61;63.66;100592.38;2110742;28;20592;-74
2022/07/11 02:28:29;;;;;;;7.60;3.47;;;;;;;22.58;63.66;100587.97;2101948;28;20075;-73
2022/07/11 02:29:51;;;;;;;5.80;3.42;;;;;;;22.57;63.87;100594.31;2107958;28;20047;-74
2022/07/11 02:31:14;;;;;;;6.88;3.50;;;;;;;22.57;63.97;100586.22;2110060;28;20051;-73
2022/07/11 02:32:35;;;;;;;8.50;3.83;;;;;;;22.59;63.91;100580.75;2102006;28;20052;-73
2022/07/11 02:33:58;;;;;;;8.52;3.53;;;;;;;22.57;63.86;100586.22;2107924;28;20048;-73
2022/07/11 02:35:20;;;;;;;5.57;3.25;;;;;;;22.57;63.94;100583.53;2110343;28;20116;-73
2022/07/11 02:36:42;;;;;;;;;;;;;;;22.52;64.20;100590.88;2102630;28;20083;-73
2022/07/11 02:38:04;;;;;;;6.72;3.65;;;;;;;22.51;64.37;100593.66;2107440;28;19920;-74
2022/07/11 02:39:27;;;;;;;7.90;3.28;;;;;;;22.53;64.29;100581.00;2110278;28;20468;-73
2022/07/11 02:40:50;;;;;;;7.20;3.38;;;;;;;22.55;64.43;100589.91;2110496;28;20039;-74
2022/07/11 02:42:11;;;;;;;5.82;3.30;;;;;;;22.54;64.45;100593.53;2113199;28;20043;-73
2022/07/11 02:43:34;;;;;;;9.25;3.53;;;;;;;22.55;64.62;100589.91;2101808;28;20056;-73
2022/07/11 02:44:55;;;;;;;5.63;3.38;;;;;;;22.56;64.62;100594.34;2110159;28;20175;-74
2022/07/11 02:46:17;;;;;;;7.00;3.40;;;;;;;22.54;64.66;100588.13;2110324;28;20101;-73
2022/07/11 02:47:39;;;;;;;9.55;3.75;;;;;;;22.53;64.80;100581.88;2110315;28;20543;-73
2022/07/11 02:49:02;;;;;;;6.75;3.50;;;;;;;22.53;64.93;100594.44;2101919;28;20047;-73
2022/07/11 02:50:23;;;;;;;7.13;3.22;;;;;;;22.54;65.01;100588.13;2099473;28;20078;-73
2022/07/11 02:51:46;;;;;;;9.23;4.00;;;;;;;22.51;65.03;100599.88;2107121;28;20080;-74
2022/07/11 02:53:07;;;;;;;8.57;3.53;;;;;;;22.53;65.23;100597.13;2110217;28;20067;-73
2022/07/11 02:54:31;;;;;;;9.30;3.50;;;;;;;22.54;65.37;100589.03;2110360;28;20474;-74
2022/07/11 02:55:54;;;;;;;7.03;3.78;;;;;;;22.55;65.43;100597.97;2110376;28;20425;-74
2022/07/11 02:57:15;;;;;;;5.65;3.70;;;;;;;22.53;65.63;100594.44;2110490;28;20509;-73
2022/07/11 02:58:38;;;;;;;;;;;;;;;22.51;65.71;100589.13;2102319;28;20040;-73
2022/07/11 02:59:59;;;;;;;5.50;3.42;;;;;;;22.53;65.71;100587.25;2107673;28;19994;-73
2022/07/11 03:01:22;;;;;;;7.65;4.03;;;;;;;22.52;65.77;100590.88;2113028;28;20097;-74
2022/07/11 03:02:43;;;;;;;19.77;5.15;;;;;;;22.54;65.70;100597.09;2110448;28;20651;-74
2022/07/11 03:04:06;;;;;;;7.45;3.72;;;;;;;22.54;65.59;100589.03;2110256;28;20040;-74
2022/07/11 03:05:29;;;;;;;6.45;3.25;;;;;;;22.56;65.53;100591.66;2110257;28;20059;-73
2022/07/11 03:06:51;;;;;;;10.30;3.75;;;;;;;22.56;65.42;100591.66;2110616;28;20068;-73
2022/07/11 03:08:13;;;;;;;7.38;3.78;;;;;;;22.55;65.33;100601.53;2110045;28;20052;-73
2022/07/11 03:09:36;;;;;;;9.93;3.65;;;;;;;22.54;65.28;100589.03;2110372;28;20043;-74
2022/07/11 03:10:58;;;;;;;7.38;3.50;;;;;;;22.52;65.29;100588.19;2110421;28;20069;-73
2022/07/11 03:12:20;;;;;;;7.63;3.45;;;;;;;22.49;65.34;100590.13;2112997;28;20070;-73
2022/07/11 03:13:42;;;;;;;8.50;3.20;;;;;;;22.49;65.31;100588.31;2110189;28;20164;-73
2022/07/11 03:15:06;;;;;;;9.65;3.42;;;;;;;22.49;65.09;100590.13;2113032;28;20696;-74
2022/07/11 03:16:28;;;;;;;8.20;3.78;;;;;;;22.49;64.99;100591.00;2110357;28;20047;-74
2022/07/11 03:17:50;;;;;;;7.25;3.38;;;;;;;22.49;64.82;100595.50;2110108;28;20417;-73
2022/07/11 03:19:12;;;;;;;6.78;3.53;;;;;;;22.49;64.71;100601.78;2110275;28;20113;-73
2022/07/11 03:20:34;;;;;;;7.72;3.63;;;;;;;22.51;64.65;100589.13;2101583;28;20048;-73
2022/07/11 03:21:56;;;;;;;7.72;3.13;;;;;;;22.55;64.75;100595.28;2106731;28;20109;-73
2022/07/11 03:23:18;;;;;;;10.00;3.63;;;;;;;22.57;64.58;100588.91;2105347;28;20099;-73
2022/07/11 03:24:41;;;;;;;6.35;3.70;;;;;;;22.58;64.64;100597.84;2110143;28;20048;-73
2022/07/11 03:26:03;;;;;;;6.95;3.30;;;;;;;22.57;64.93;100593.44;2110224;28;20051;-73
2022/07/11 03:27:26;;;;;;;6.20;3.38;;;;;;;22.58;65.23;100589.78;2110005;28;20545;-73
2022/07/11 03:28:48;;;;;;;15.32;3.28;;;;;;;22.64;65.16;100590.44;2110326;28;20059;-74
2022/07/11 03:30:11;;;;;;;13.48;3.75;;;;;;;22.74;65.04;100599.09;2110014;28;20055;-73
2022/07/11 03:31:33;;;;;;;8.95;4.50;;;;;;;22.81;64.77;100606.00;2110220;28;20115;-73
2022/07/11 03:32:55;;;;;;;10.38;3.47;;;;;;;22.89;64.47;100611.09;2110092;28;20551;-73
2022/07/11 03:34:16;;;;;;;7.97;3.20;;;;;;;22.95;64.17;100609.06;2109883;28;20823;-73
2022/07/11 03:35:42;;;;;;;5.75;3.03;;;;;;;23.03;63.99;100611.47;2110036;28;20079;-73
2022/07/11 03:37:05;;;;;;;7.53;3.10;;;;;;;23.10;63.73;100620.19;2110590;28;20576;-73
2022/07/11 03:38:27;;;;;;;7.28;3.35;;;;;;;23.16;63.42;100614.56;2104446;28;20506;-73
2022/07/11 03:39:51;;;;;;;6.28;2.97;;;;;;;23.18;63.26;100604.59;2098929;28;20122;-73
2022/07/11 03:41:13;;;;;;;8.10;3.17;;;;;;;23.26;63.02;100599.78;2107507;28;20054;-74
2022/07/11 03:42:35;;;;;;;8.15;3.60;;;;;;;23.33;62.70;100612.97;2110134;28;20043;-74
2022/07/11 03:43:56;;;;;;;7.07;3.05;;;;;;;23.41;62.61;100605.47;2110040;28;20074;-73
2022/07/11 03:45:19;;;;;;;6.63;3.33;;;;;;;23.52;62.42;100614.97;2102553;28;20040;-73
2022/07/11 03:46:41;;;;;;;7.00;3.40;;;;;;;23.58;62.25;100612.91;2103526;28;20063;-73
2022/07/11 03:48:03;;;;;;;5.03;2.78;;;;;;;23.62;61.96;100614.53;2108405;28;20044;-73
2022/07/11 03:49:26;;;;;;;4.18;2.67;;;;;;;23.70;62.08;100615.09;2111687;28;20055;-74
2022/07/11 03:50:48;;;;;;;5.78;3.63;;;;;;;23.80;61.75;100612.91;2103366;28;20032;-74
2022/07/11 03:52:10;;;;;;;;;;;;;;;23.87;61.56;100624.31;2109110;28;20043;-74
2022/07/11 03:53:31;;;;;;;6.15;2.75;;;;;;;23.96;61.67;100615.84;2111550;28;19966;-73
2022/07/11 03:54:55;;;;;;;4.57;2.55;;;;;;;24.05;61.21;100618.16;2111280;28;20040;-73
2022/07/11 03:56:22;;;;;;;4.03;2.53;;;;;;;24.13;61.19;100624.09;2111626;28;20044;-73
2022/07/11 03:57:43;;;;;;;6.32;2.47;;;;;;;24.21;61.11;100622.00;2103821;28;20470;-73
2022/07/11 03:59:06;;;;;;;9.55;3.03;;;;;;;24.28;61.24;100622.59;2100408;28;20131;-73
2022/07/11 04:00:27;;;;;;;6.60;2.75;;;;;;;24.36;61.04;100626.72;2100490;28;20047;-73
2022/07/11 04:01:50;;;;;;;5.93;2.72;;;;;;;24.45;60.66;100618.22;2103060;28;20370;-73
2022/07/11 04:03:11;;;;;;;4.97;2.65;;;;;;;24.55;60.43;100618.69;2108506;28;20055;-73
2022/07/11 04:04:34;;;;;;;3.97;2.40;;;;;;;24.64;60.19;100620.97;2102910;28;20718;-73
2022/07/11 04:05:56;;;;;;;9.38;2.50;;;;;;;24.76;60.03;100617.72;2111592;28;20085;-73
2022/07/11 04:07:18;;;;;;;5.47;2.53;;;;;;;24.89;59.78;100621.66;2111462;28;20960;-73
2022/07/11 04:08:40;;;;;;;7.07;2.60;;;;;;;24.98;59.40;100623.94;2111079;28;20047;-73
2022/07/11 04:10:05;;;;;;;9.20;2.97;;;;;;;25.06;59.07;100622.72;2111653;28;20456;-73
2022/07/11 04:11:28;;;;;;;6.60;2.22;;;;;;;25.13;59.22;100625.06;2111800;28;20055;-73
2022/07/11 04:12:50;;;;;;;4.63;2.40;;;;;;;25.23;58.87;100631.78;2111416;28;20032;-74
2022/07/11 04:14:12;;;;;;;8.00;2.83;;;;;;;25.30;58.85;100625.16;2111406;28;20108;-74
2022/07/11 04:15:34;;;;;;;4.65;2.53;;;;;;;25.39;58.85;100637.34;2113977;28;20146;-74
2022/07/11 04:16:57;;;;;;;4.45;2.78;;;;;;;25.54;58.64;100633.91;2111449;28;20104;-73
2022/07/11 04:18:19;;;;;;;6.15;3.50;;;;;;;25.64;58.20;100632.56;2111422;28;20044;-73
2022/07/11 04:19:42;;;;;;;3.70;2.53;;;;;;;25.76;58.29;100631.94;2111398;28;20436;-73
2022/07/11 04:21:05;;;;;;;9.55;2.75;;;;;;;25.86;57.70;100629.69;2111118;28;20074;-74
2022/07/11 04:22:27;;;;;;;9.57;2.65;;;;;;;25.94;57.14;100631.97;2111324;28;20047;-73
2022/07/11 04:23:50;;;;;;;4.32;2.75;;;;;;;26.03;57.16;100626.13;2114001;28;20047;-73
2022/07/11 04:25:14;;;;;;;5.50;2.50;;;;;;;26.14;56.64;100621.03;2111325;28;20843;-73
2022/07/11 04:26:36;;;;;;;5.72;2.50;;;;;;;26.20;56.31;100623.41;2111558;28;20074;-74
2022/07/11 04:27:58;;;;;;;8.13;2.47;;;;;;;26.30;55.91;100634.69;2102711;28;20040;-74
2022/07/11 04:29:21;;;;;;;4.32;2.20;;;;;;;26.40;55.59;100633.25;2111229;28;20125;-73
2022/07/11 04:30:43;;;;;;;5.05;2.88;;;;;;;26.55;55.24;100637.88;2111107;28;20516;-73
2022/07/11 04:32:05;;;;;;;8.75;3.38;;;;;;;26.69;54.89;100632.63;2113839;28;20093;-73
2022/07/11 04:33:28;;;;;;;5.10;2.35;;;;;;;26.82;54.25;100633.72;2111297;28;20048;-73
2022/07/11 04:34:49;;;;;;;7.60;3.40;;;;;;;26.96;53.98;100636.59;2111018;28;20047;-73
2022/07/11 04:36:12;;;;;;;5.68;2.10;;;;;;;27.13;53.38;100629.34;2105464;28;20109;-73
2022/07/11 04:37:34;;;;;;;6.43;2.50;;;;;;;27.30;52.79;100635.63;2102497;28;20068;-73
2022/07/11 04:38:56;;;;;;;5.15;2.47;;;;;;;27.43;52.40;100634.94;2111170;28;20043;-74
2022/07/11 04:40:20;;;;;;;6.13;2.42;;;;;;;27.60;51.89;100635.75;2111257;28;20075;-73
2022/07/11 04:41:43;;;;;;;4.22;2.20;;;;;;;27.72;51.37;100636.88;2103167;28;20052;-73
2022/07/11 04:43:05;;;;;;;6.60;2.40;;;;;;;27.85;51.17;100642.47;2108503;28;20048;-73
2022/07/11 04:44:27;;;;;;;4.63;2.60;;;;;;;28.07;50.63;100629.41;2110689;28;20039;-73
2022/07/11 04:45:49;;;;;;;13.27;2.22;;;;;;;28.22;49.99;100638.53;2111143;28;20036;-74
2022/07/11 04:47:11;;;;;;;6.95;2.85;;;;;;;28.34;49.52;100638.66;2111256;28;20051;-74
2022/07/11 04:48:33;;;;;;;5.45;2.83;;;;;;;28.45;49.07;100641.59;2111076;28;20795;-73
2022/07/11 04:49:56;;;;;;;3.20;2.05;;;;;;;28.65;48.69;100647.66;2114083;28;20035;-74
2022/07/11 04:51:19;;;;;;;5.35;2.60;;;;;;;28.84;48.36;100648.31;2111047;28;20070;-74
2022/07/11 04:52:41;;;;;;;4.72;2.22;;;;;;;29.03;47.86;100640.75;2102716;28;20155;-74
2022/07/11 04:54:04;;;;;;;5.43;2.67;;;;;;;29.12;47.45;100648.34;2108506;28;20046;-73
2022/07/11 04:55:29;;;;;;;11.57;2.67;;;;;;;29.24;47.24;100647.56;2110589;28;20146;-73
2022/07/11 04:56:50;;;;;;;5.75;2.67;;;;;;;29.39;46.75;100653.03;2102734;28;20051;-74
2022/07/11 04:58:12;;;;;;;5.85;2.45;;;;;;;29.57;46.49;100657.28;2102331;28;20043;-73
2022/07/11 04:59:34;;;;;;;4.35;2.47;;;;;;;29.78;45.95;100655.00;2102733;28;20441;-73
2022/07/11 05:00:56;;;;;;;4.80;1.88;;;;;;;29.95;45.90;100644.78;2096853;28;20090;-73
2022/07/11 05:02:18;;;;;;;5.32;2.60;;;;;;;30.10;45.21;100642.88;2094516;28;20453;-73
2022/07/11 05:03:41;;;;;;;6.05;2.90;;;;;;;30.17;45.06;100651.50;2100014;28;20052;-74
2022/07/11 05:05:04;;;;;;;6.60;2.40;;;;;;;30.29;44.54;100653.41;2102182;28;20060;-74
2022/07/11 05:06:26;;;;;;;3.63;2.00;;;;;;;30.39;44.02;100658.09;2102747;28;20509;-74
2022/07/11 05:07:48;;;;;;;5.75;2.30;;;;;;;30.49;44.00;100652.94;2102542;28;20052;-73
2022/07/11 05:09:11;;;;;;;4.95;2.70;;;;;;;30.73;43.91;100662.13;2096581;28;20090;-74
2022/07/11 05:10:36;;;;;;;2.85;1.98;;;;;;;30.97;43.05;100658.69;2102863;28;20056;-74
2022/07/11 05:11:57;;;;;;;5.47;2.05;;;;;;;31.10;42.74;100667.75;2104815;28;20537;-74
2022/07/11 05:13:20;;;;;;;9.05;2.78;;;;;;;31.20;42.26;100661.53;2110362;28;20043;-73
2022/07/11 05:14:41;;;;;;;6.55;2.17;;;;;;;31.33;42.19;100668.81;2099635;28;20057;-74
2022/07/11 05:16:04;;;;;;;7.00;2.47;;;;;;;31.49;41.93;100672.19;2099844;28;20036;-74
2022/07/11 05:17:25;;;;;;;5.40;2.25;;;;;;;31.64;41.59;100666.50;2102519;28;20048;-74
2022/07/11 05:18:48;;;;;;;3.70;2.25;;;;;;;31.74;41.17;100676.75;2102578;28;20055;-74
2022/07/11 05:20:12;;;;;;;4.25;2.40;;;;;;;31.93;40.99;100671.66;2094241;28;20049;-74
2022/07/11 05:21:33;;;;;;;5.55;2.30;;;;;;;32.13;40.45;100673.78;2100284;28;20078;-74
2022/07/11 05:22:56;;;;;;;5.10;2.50;;;;;;;32.41;40.28;100669.84;2105055;28;20079;-73
2022/07/11 05:24:19;;;;;;;5.68;2.00;;;;;;;32.52;39.65;100671.75;2111082;28;20078;-74
2022/07/11 05:25:43;;;;;;;4.75;2.50;;;;;;;32.57;39.26;100667.66;2110913;28;20051;-74
2022/07/11 05:27:06;;;;;;;6.78;2.42;;;;;;;32.70;39.38;100681.28;2111047;28;20496;-74
2022/07/11 05:28:28;;;;;;;5.82;2.42;;;;;;;32.88;38.95;100677.13;2110928;28;20143;-74
2022/07/11 05:29:50;;;;;;;4.75;2.13;;;;;;;33.00;38.78;100686.22;2102449;28;20138;-74
2022/07/11 05:31:13;;;;;;;6.35;2.40;;;;;;;33.06;38.84;100681.13;2099629;28;20048;-74
2022/07/11 05:32:35;;;;;;;4.38;2.25;;;;;;;33.13;38.82;100676.94;2107978;28;20048;-74
2022/07/11 05:33:57;;;;;;;5.20;2.10;;;;;;;33.22;38.17;100680.81;2111013;28;20055;-74
2022/07/11 05:35:19;;;;;;;5.72;2.33;;;;;;;33.24;38.24;100689.78;2110771;28;20040;-74
2022/07/11 05:36:43;;;;;;;9.15;2.40;;;;;;;33.28;38.40;100701.38;2110722;28;20417;-74
2022/07/11 05:38:05;;;;;;;6.13;2.17;;;;;;;33.32;37.95;100689.16;2111047;28;20426;-74
2022/07/11 05:39:28;;;;;;;6.15;2.13;;;;;;;33.34;37.93;100689.91;2110880;28;20138;-74
2022/07/11 05:40:50;;;;;;;4.78;2.38;;;;;;;33.41;37.80;100693.91;2110475;28;20067;-74
2022/07/11 05:42:14;;;;;;;6.78;2.55;;;;;;;33.37;37.64;100689.66;2105240;28;20051;-74
2022/07/11 05:43:35;;;;;;;6.70;2.20;;;;;;;33.29;37.81;100697.59;2110724;28;20047;-74
2022/07/11 05:44:58;;;;;;;5.68;1.95;;;;;;;33.46;37.79;100705.34;2110636;28;20661;-74
2022/07/11 05:46:21;;;;;;;4.75;2.50;;;;;;;33.53;37.21;100701.13;2102495;28;20369;-74
2022/07/11 05:47:43;;;;;;;4.47;2.33;;;;;;;33.57;37.26;100702.59;2107679;28;20043;-74
2022/07/11 05:49:04;;;;;;;6.45;1.92;;;;;;;33.76;37.19;100708.34;2102227;28;20071;-74
2022/07/11 05:50:27;;;;;;;6.43;2.42;;;;;;;33.92;36.87;100703.38;2116604;27;20055;-74
2022/07/11 05:51:50;;;;;;;4.65;2.15;;;;;;;33.96;36.70;100698.47;2113299;28;20088;-74
2022/07/11 05:53:12;;;;;;;5.13;2.33;;;;;;;33.98;36.58;100702.84;2110521;28;20046;-74
2022/07/11 05:54:35;;;;;;;6.32;2.33;;;;;;;34.10;36.41;100703.69;2110565;28;20052;-74
2022/07/11 05:55:58;;;;;;;4.63;2.05;;;;;;;34.23;36.40;100706.31;2110512;28;20047;-74
2022/07/11 05:57:20;;;;;;;6.43;2.55;;;;;;;34.25;36.03;100694.22;2104347;28;20044;-74
2022/07/11 05:58:42;;;;;;;5.25;2.63;;;;;;;34.23;35.89;100698.94;2104807;28;20466;-75
2022/07/11 06:00:05;;;;;;;5.30;2.15;;;;;;;34.24;35.89;100702.56;2088074;28;20139;-74
2022/07/11 06:01:32;;;;;;;5.55;2.30;;;;;;;34.33;35.52;100696.31;2092127;28;20195;-74
2022/07/11 06:02:55;;;;;;;4.03;2.20;;;;;;;34.23;35.55;100688.00;2082811;28;20106;-74
2022/07/11 06:04:16;;;;;;;5.97;2.30;;;;;;;34.25;35.84;100698.84;2085557;28;20820;-74
2022/07/11 06:05:38;;;;;;;3.40;2.03;;;;;;;34.40;35.36;100701.13;2089952;28;20135;-74
2022/07/11 06:07:01;;;;;;;4.50;2.13;;;;;;;34.32;35.24;100709.16;2095780;28;20191;-74
2022/07/11 06:08:40;;;;;;;3.80;2.15;;;;;;;34.35;35.28;100711.63;2095635;28;20042;-74
2022/07/11 06:10:03;;;;;;;4.28;2.30;;;;;;;34.60;35.27;100704.91;2087646;28;20057;-74
2022/07/11 06:11:27;;;;;;;7.25;2.50;;;;;;;34.81;35.09;100707.72;2091217;28;20131;-74
2022/07/11 06:12:49;;;;;;;6.80;2.08;;;;;;;34.83;34.73;100715.81;2102059;28;20048;-75
2022/07/11 06:14:12;;;;;;;3.00;1.90;;;;;;;34.74;34.79;100723.84;2104743;28;20108;-75
2022/07/11 06:15:34;;;;;;;5.05;2.22;;;;;;;34.75;34.78;100721.97;2103957;28;20142;-74
2022/07/11 06:16:56;;;;;;;4.03;2.03;;;;;;;34.75;34.77;100724.72;2104685;28;20044;-74
2022/07/11 06:18:18;;;;;;;6.65;1.92;;;;;;;34.83;34.71;100713.94;2098665;28;20079;-74
2022/07/11 06:19:40;;;;;;;3.58;1.90;;;;;;;34.96;34.46;100721.97;2093685;28;20040;-75
2022/07/11 06:21:02;;;;;;;5.07;2.20;;;;;;;35.04;34.02;100722.19;2093682;28;20870;-75
2022/07/11 06:22:24;;;;;;;6.85;2.30;;;;;;;35.08;34.12;100710.81;2099442;28;20592;-74
2022/07/11 06:23:47;;;;;;;4.90;2.03;;;;;;;35.03;33.89;100721.31;2115645;27;20561;-74
2022/07/11 06:25:09;;;;;;;4.95;2.17;;;;;;;34.79;34.01;100720.69;2112769;28;20055;-74
2022/07/11 06:26:33;;;;;;;3.45;1.90;;;;;;;34.69;34.02;100716.97;2110183;28;20047;-74